createdAt,value
2023-04-09T00:00:18.776Z,21.8053
2023-04-09T00:01:22.935Z,21.7949
2023-04-09T00:02:26.905Z,21.7950
2023-04-09T00:03:30.813Z,21.8128
2023-04-09T00:04:34.765Z,21.8218
2023-04-09T00:05:38.627Z,21.8318
2023-04-09T00:06:42.535Z,21.8385
2023-04-09T00:07:46.425Z,21.8262
2023-04-09T00:08:50.813Z,21.8085
2023-04-09T00:09:54.775Z,21.8019
2023-04-09T00:10:58.914Z,21.8177
2023-04-09T00:12:02.899Z,21.8065
2023-04-09T00:13:06.723Z,21.8116
2023-04-09T00:14:10.627Z,21.8039
2023-04-09T00:15:23.996Z,21.7919
2023-04-09T00:16:19.054Z,21.7561
2023-04-09T00:17:22.958Z,21.7409
2023-04-09T00:18:26.836Z,21.7340
2023-04-09T00:19:30.718Z,21.7444
2023-04-09T00:20:34.617Z,21.7602
2023-04-09T00:21:38.850Z,21.7579
2023-04-09T00:22:42.746Z,21.7546
2023-04-09T00:23:42.942Z,21.7576
2023-04-09T00:24:46.848Z,21.7629
2023-04-09T00:25:50.738Z,21.7747
2023-04-09T00:26:54.639Z,21.7734
2023-04-09T00:27:58.515Z,21.7493
2023-04-09T00:29:02.418Z,21.7312
2023-04-09T00:30:06.308Z,21.7361
2023-04-09T00:31:10.225Z,21.7563
2023-04-09T00:32:14.084Z,21.7529
2023-04-09T00:33:17.990Z,21.7328
2023-04-09T00:34:21.880Z,21.7420
2023-04-09T00:35:25.802Z,21.7600
2023-04-09T00:36:29.900Z,21.7610
2023-04-09T00:37:33.809Z,21.7376
2023-04-09T00:38:37.709Z,21.7228
2023-04-09T00:39:41.668Z,21.7165
2023-04-09T00:40:45.504Z,21.7247
2023-04-09T00:41:49.410Z,21.7275
2023-04-09T00:42:53.297Z,21.7234
2023-04-09T00:43:57.233Z,21.7138
2023-04-09T00:45:01.131Z,21.7163
2023-04-09T00:46:05.046Z,21.7168
2023-04-09T00:47:08.953Z,21.7033
2023-04-09T00:48:12.824Z,21.7093
2023-04-09T00:49:16.728Z,21.6987
2023-04-09T00:50:20.636Z,21.6934
2023-04-09T00:51:24.543Z,21.7018
2023-04-09T00:52:28.414Z,21.7130
2023-04-09T00:53:32.323Z,21.7026
2023-04-09T00:54:36.234Z,21.6764
2023-04-09T00:55:40.141Z,21.6690
2023-04-09T00:56:44.010Z,21.6487
2023-04-09T00:57:47.935Z,21.6319
2023-04-09T00:58:52.377Z,21.6289
2023-04-09T00:59:56.443Z,21.6432
2023-04-09T01:01:00.352Z,21.6729
2023-04-09T01:02:04.276Z,21.6745
2023-04-09T01:03:08.289Z,21.6526
2023-04-09T01:04:12.211Z,21.6440
2023-04-09T01:05:16.112Z,21.6325
2023-04-09T01:06:20.176Z,21.6316
2023-04-09T01:07:24.063Z,21.6346
2023-04-09T01:08:27.965Z,21.6292
2023-04-09T01:09:31.847Z,21.6188
2023-04-09T01:10:35.762Z,21.6229
2023-04-09T01:11:39.642Z,21.6144
2023-04-09T01:12:43.542Z,21.6188
2023-04-09T01:13:47.760Z,21.6170
2023-04-09T01:14:51.659Z,21.6149
2023-04-09T01:15:55.642Z,21.6040
2023-04-09T01:16:59.542Z,21.5951
2023-04-09T01:18:03.489Z,21.5940
2023-04-09T01:19:07.343Z,21.6007
2023-04-09T01:20:11.229Z,21.6210
2023-04-09T01:21:15.355Z,21.6246
2023-04-09T01:22:19.235Z,21.6207
2023-04-09T01:23:23.138Z,21.6164
2023-04-09T01:24:27.249Z,21.6111
2023-04-09T01:25:31.150Z,21.6069
2023-04-09T01:26:35.058Z,21.6250
2023-04-09T01:27:38.968Z,21.6387
2023-04-09T01:28:42.868Z,21.6466
2023-04-09T01:29:46.760Z,21.6386
2023-04-09T01:30:50.717Z,21.6317
2023-04-09T01:31:54.833Z,21.6391
2023-04-09T01:32:58.805Z,21.6600
2023-04-09T01:34:02.873Z,21.6443
2023-04-09T01:35:06.778Z,21.6176
2023-04-09T01:36:10.676Z,21.5996
2023-04-09T01:37:14.564Z,21.5867
2023-04-09T01:38:18.471Z,21.5858
2023-04-09T01:39:22.604Z,21.5878
2023-04-09T01:40:26.508Z,21.5827
2023-04-09T01:41:30.728Z,21.5903
2023-04-09T01:42:34.617Z,21.6017
2023-04-09T01:43:38.506Z,21.6075
2023-04-09T01:44:42.419Z,21.6141
2023-04-09T01:45:46.327Z,21.6072
2023-04-09T01:46:50.299Z,21.5922
2023-04-09T01:47:54.241Z,21.5755
2023-04-09T01:48:58.361Z,21.5775
2023-04-09T01:50:02.317Z,21.5780
2023-04-09T01:51:06.287Z,21.5916
2023-04-09T01:52:10.192Z,21.5953
2023-04-09T01:53:14.090Z,21.5837
2023-04-09T01:54:17.983Z,21.5899
2023-04-09T01:55:21.885Z,21.5903
2023-04-09T01:56:25.982Z,21.5830
2023-04-09T01:57:29.876Z,21.5757
2023-04-09T01:58:33.781Z,21.5657
2023-04-09T01:59:37.965Z,21.5734
2023-04-09T02:00:41.859Z,21.6040
2023-04-09T02:01:45.833Z,21.6135
2023-04-09T02:02:49.858Z,21.6165
2023-04-09T02:03:53.877Z,21.6211
2023-04-09T02:04:57.777Z,21.6187
2023-04-09T02:05:58.126Z,21.6199
2023-04-09T02:07:02.012Z,21.6165
2023-04-09T02:08:05.913Z,21.6085
2023-04-09T02:09:09.997Z,21.6204
2023-04-09T02:11:18.988Z,21.6236
2023-04-09T02:11:18.988Z,21.5866
2023-04-09T02:12:22.866Z,21.5715
2023-04-09T02:13:26.771Z,21.5786
2023-04-09T02:14:30.668Z,21.5679
2023-04-09T02:15:34.585Z,21.5581
2023-04-09T02:16:38.747Z,21.5714
2023-04-09T02:17:42.656Z,21.5725
2023-04-09T02:18:46.779Z,21.5672
2023-04-09T02:19:50.650Z,21.5669
2023-04-09T02:20:54.545Z,21.5431
2023-04-09T02:21:58.437Z,21.5224
2023-04-09T02:23:02.345Z,21.5219
2023-04-09T02:24:06.259Z,21.5153
2023-04-09T02:25:10.172Z,21.5304
2023-04-09T02:26:14.051Z,21.5512
2023-04-09T02:27:18.007Z,21.5648
2023-04-09T02:28:21.874Z,21.5711
2023-04-09T02:29:25.797Z,21.5839
2023-04-09T02:30:29.664Z,21.5824
2023-04-09T02:31:33.866Z,21.5797
2023-04-09T02:32:37.831Z,21.5712
2023-04-09T02:33:41.703Z,21.5605
2023-04-09T02:34:45.601Z,21.5472
2023-04-09T02:35:49.546Z,21.5417
2023-04-09T02:36:53.404Z,21.5424
2023-04-09T02:37:57.318Z,21.5471
2023-04-09T02:39:01.438Z,21.5430
2023-04-09T02:40:05.373Z,21.5345
2023-04-09T02:41:09.257Z,21.5282
2023-04-09T02:42:13.357Z,21.5196
2023-04-09T02:43:17.273Z,21.5172
2023-04-09T02:44:21.146Z,21.5170
2023-04-09T02:45:25.062Z,21.5219
2023-04-09T02:46:29.013Z,21.5459
2023-04-09T02:47:32.968Z,21.5457
2023-04-09T02:48:36.839Z,21.5373
2023-04-09T02:49:40.742Z,21.5509
2023-04-09T02:50:44.664Z,21.5767
2023-04-09T02:51:48.623Z,21.5705
2023-04-09T02:52:52.531Z,21.5517
2023-04-09T02:53:56.732Z,21.5497
2023-04-09T02:55:00.644Z,21.5733
2023-04-09T02:56:04.525Z,21.6006
2023-04-09T02:57:08.437Z,21.6040
2023-04-09T02:58:12.312Z,21.6107
2023-04-09T02:59:16.222Z,21.6086
2023-04-09T03:00:20.117Z,21.6167
2023-04-09T03:01:24.035Z,21.6288
2023-04-09T03:02:28.091Z,21.6305
2023-04-09T03:03:32.098Z,21.6124
2023-04-09T03:04:36.033Z,21.5979
2023-04-09T03:05:39.937Z,21.6081
2023-04-09T03:06:44.053Z,21.6207
2023-04-09T03:07:47.959Z,21.6081
2023-04-09T03:08:52.281Z,21.6083
2023-04-09T03:09:56.306Z,21.6190
2023-04-09T03:11:00.184Z,21.6264
2023-04-09T03:12:04.090Z,21.6018
2023-04-09T03:13:07.982Z,21.5733
2023-04-09T03:14:11.879Z,21.5659
2023-04-09T03:15:15.785Z,21.5614
2023-04-09T03:16:19.724Z,21.5772
2023-04-09T03:17:23.593Z,21.5675
2023-04-09T03:18:27.509Z,21.5595
2023-04-09T03:19:31.395Z,21.5530
2023-04-09T03:20:35.291Z,21.5431
2023-04-09T03:21:39.184Z,21.5385
2023-04-09T03:22:43.089Z,21.5369
2023-04-09T03:23:46.974Z,21.5369
2023-04-09T03:24:50.874Z,21.5502
2023-04-09T03:25:54.774Z,21.5498
2023-04-09T03:26:58.887Z,21.5355
2023-04-09T03:28:02.830Z,21.5325
2023-04-09T03:29:06.690Z,21.5340
2023-04-09T03:30:10.595Z,21.5304
2023-04-09T03:31:14.554Z,21.5278
2023-04-09T03:32:19.174Z,21.5281
2023-04-09T03:33:23.053Z,21.5295
2023-04-09T03:34:26.963Z,21.5386
2023-04-09T03:35:30.884Z,21.5472
2023-04-09T03:36:34.777Z,21.5489
2023-04-09T03:37:38.660Z,21.5589
2023-04-09T03:38:42.576Z,21.5683
2023-04-09T03:39:46.693Z,21.5704
2023-04-09T03:40:50.606Z,21.5690
2023-04-09T03:41:54.710Z,21.5730
2023-04-09T03:42:58.632Z,21.5767
2023-04-09T03:44:02.529Z,21.5921
2023-04-09T03:45:06.424Z,21.5977
2023-04-09T03:46:10.327Z,21.6094
2023-04-09T03:47:14.442Z,21.6098
2023-04-09T03:48:18.342Z,21.6062
2023-04-09T03:49:22.472Z,21.6075
2023-04-09T03:50:26.354Z,21.6096
2023-04-09T03:51:30.265Z,21.6096
2023-04-09T03:52:34.153Z,21.6098
2023-04-09T03:53:38.087Z,21.6188
2023-04-09T03:54:42.291Z,21.6266
2023-04-09T03:55:46.198Z,21.6344
2023-04-09T03:56:50.342Z,21.6433
2023-04-09T03:57:54.247Z,21.6370
2023-04-09T03:58:58.174Z,21.6326
2023-04-09T04:00:02.073Z,21.6287
2023-04-09T04:01:05.954Z,21.6199
2023-04-09T04:02:09.934Z,21.6229
2023-04-09T04:03:13.984Z,21.6226
2023-04-09T04:04:20.468Z,21.6210
2023-04-09T04:05:20.558Z,21.6154
2023-04-09T04:06:24.468Z,21.6176
2023-04-09T04:07:28.363Z,21.6231
2023-04-09T04:08:32.280Z,21.6363
2023-04-09T04:09:36.176Z,21.6561
2023-04-09T04:10:40.084Z,21.6586
2023-04-09T04:11:43.973Z,21.6620
2023-04-09T04:12:47.942Z,21.6708
2023-04-09T04:13:51.820Z,21.6791
2023-04-09T04:14:55.739Z,21.6870
2023-04-09T04:15:59.664Z,21.6723
2023-04-09T04:17:03.761Z,21.6480
2023-04-09T04:18:07.648Z,21.6256
2023-04-09T04:19:11.874Z,21.5928
2023-04-09T04:20:15.752Z,21.5566
2023-04-09T04:21:19.657Z,21.5329
2023-04-09T04:22:26.112Z,21.5316
2023-04-09T04:23:24.909Z,21.5492
2023-04-09T04:24:28.799Z,21.5569
2023-04-09T04:25:32.712Z,21.5520
2023-04-09T04:26:36.612Z,21.5402
2023-04-09T04:27:40.525Z,21.5274
2023-04-09T04:28:44.420Z,21.4978
2023-04-09T04:29:44.515Z,21.4797
2023-04-09T04:30:48.406Z,21.4697
2023-04-09T04:31:52.347Z,21.4602
2023-04-09T04:32:56.240Z,21.4606
2023-04-09T04:34:00.195Z,21.4556
2023-04-09T04:35:04.271Z,21.4513
2023-04-09T04:36:08.166Z,21.4496
2023-04-09T04:37:12.292Z,21.4475
2023-04-09T04:38:16.181Z,21.4477
2023-04-09T04:39:20.095Z,21.4483
2023-04-09T04:40:23.960Z,21.4453
2023-04-09T04:41:27.869Z,21.4338
2023-04-09T04:42:31.961Z,21.4402
2023-04-09T04:43:35.867Z,21.4564
2023-04-09T04:44:39.979Z,21.4769
2023-04-09T04:45:43.926Z,21.4798
2023-04-09T04:46:47.799Z,21.4760
2023-04-09T04:47:51.716Z,21.4771
2023-04-09T04:48:55.587Z,21.4828
2023-04-09T04:49:59.501Z,21.4952
2023-04-09T04:51:03.373Z,21.4878
2023-04-09T04:52:07.614Z,21.4753
2023-04-09T04:53:11.499Z,21.4786
2023-04-09T04:54:15.399Z,21.4824
2023-04-09T04:55:19.289Z,21.5020
2023-04-09T04:56:23.194Z,21.5069
2023-04-09T04:57:27.085Z,21.5118
2023-04-09T04:58:31.005Z,21.5184
2023-04-09T04:59:35.111Z,21.5343
2023-04-09T05:00:39.020Z,21.5354
2023-04-09T05:01:43.015Z,21.5281
2023-04-09T05:02:47.263Z,21.5225
2023-04-09T05:03:51.216Z,21.5231
2023-04-09T05:04:55.192Z,21.5237
2023-04-09T05:05:59.078Z,21.5163
2023-04-09T05:07:02.958Z,21.5114
2023-04-09T05:08:06.872Z,21.5179
2023-04-09T05:09:10.765Z,21.5159
2023-04-09T05:10:14.660Z,21.5106
2023-04-09T05:11:18.536Z,21.5188
2023-04-09T05:12:22.690Z,21.4954
2023-04-09T05:13:26.572Z,21.4925
2023-04-09T05:14:30.484Z,21.5521
2023-04-09T05:15:34.361Z,21.6094
2023-04-09T05:16:38.291Z,21.6595
2023-04-09T05:17:42.203Z,21.7034
2023-04-09T05:18:46.106Z,21.7305
2023-04-09T05:19:49.999Z,21.7598
2023-04-09T05:20:53.912Z,21.7812
2023-04-09T05:21:58.004Z,21.7932
2023-04-09T05:23:01.930Z,21.8126
2023-04-09T05:24:05.818Z,21.8282
2023-04-09T05:25:09.701Z,21.8313
2023-04-09T05:26:13.590Z,21.8320
2023-04-09T05:27:17.502Z,21.8369
2023-04-09T05:28:21.401Z,21.8436
2023-04-09T05:29:26.890Z,21.8547
2023-04-09T05:30:30.800Z,21.8649
2023-04-09T05:31:34.681Z,21.8693
2023-04-09T05:32:38.629Z,21.8843
2023-04-09T05:33:42.487Z,21.8922
2023-04-09T05:34:46.395Z,21.9046
2023-04-09T05:35:50.301Z,21.9137
2023-04-09T05:36:54.208Z,21.9354
2023-04-09T05:37:58.293Z,21.9629
2023-04-09T05:39:02.196Z,21.9909
2023-04-09T05:40:06.414Z,22.0360
2023-04-09T05:41:10.314Z,22.0898
2023-04-09T05:42:14.235Z,22.1399
2023-04-09T05:43:18.105Z,22.1904
2023-04-09T05:44:22.007Z,22.2339
2023-04-09T05:45:25.901Z,22.2794
2023-04-09T05:46:29.911Z,22.3260
2023-04-09T05:47:33.886Z,22.3635
2023-04-09T05:48:37.772Z,22.4099
2023-04-09T05:49:41.640Z,22.4461
2023-04-09T05:50:54.475Z,22.4800
2023-04-09T05:51:50.026Z,22.5335
2023-04-09T05:52:53.934Z,22.5917
2023-04-09T05:53:57.820Z,22.6684
2023-04-09T05:55:01.766Z,22.7360
2023-04-09T05:56:05.609Z,22.7669
2023-04-09T05:57:09.760Z,22.8361
2023-04-09T05:58:13.637Z,22.8978
2023-04-09T05:59:17.536Z,22.9450
2023-04-09T06:00:21.637Z,22.9534
2023-04-09T06:01:25.548Z,22.9389
2023-04-09T06:02:29.485Z,22.9570
2023-04-09T06:03:33.470Z,22.9730
2023-04-09T06:04:37.433Z,22.9686
2023-04-09T06:05:41.330Z,22.9482
2023-04-09T06:06:45.205Z,22.8988
2023-04-09T06:07:49.120Z,22.8344
2023-04-09T06:08:53.014Z,22.7802
2023-04-09T06:09:56.910Z,22.7307
2023-04-09T06:11:00.815Z,22.7073
2023-04-09T06:12:04.754Z,22.6935
2023-04-09T06:13:08.600Z,22.6849
2023-04-09T06:14:12.509Z,22.6662
2023-04-09T06:15:16.398Z,22.6554
2023-04-09T06:16:20.335Z,22.6392
2023-04-09T06:17:20.568Z,22.6388
2023-04-09T06:18:24.440Z,22.6506
2023-04-09T06:19:28.345Z,22.6814
2023-04-09T06:20:32.235Z,22.7005
2023-04-09T06:21:36.131Z,22.7089
2023-04-09T06:22:40.012Z,22.7014
2023-04-09T06:23:43.900Z,22.7193
2023-04-09T06:24:48.132Z,22.7336
2023-04-09T06:25:52.056Z,22.7365
2023-04-09T06:26:55.946Z,22.7529
2023-04-09T06:27:59.827Z,22.7398
2023-04-09T06:29:03.695Z,22.7288
2023-04-09T06:30:07.626Z,22.7376
2023-04-09T06:31:11.537Z,22.7631
2023-04-09T06:32:15.624Z,22.7756
2023-04-09T06:33:19.595Z,22.7710
2023-04-09T06:34:23.493Z,22.7893
2023-04-09T06:35:27.399Z,22.8447
2023-04-09T06:36:31.295Z,22.8678
2023-04-09T06:37:35.192Z,22.8696
2023-04-09T06:38:39.086Z,22.8873
2023-04-09T06:39:50.553Z,22.8783
2023-04-09T06:40:47.480Z,22.9021
2023-04-09T06:41:51.373Z,22.8920
2023-04-09T06:42:55.262Z,22.8839
2023-04-09T06:43:59.145Z,22.8855
2023-04-09T06:45:03.060Z,22.8775
2023-04-09T06:46:06.958Z,22.8672
2023-04-09T06:47:10.850Z,22.8830
2023-04-09T06:48:14.951Z,22.8970
2023-04-09T06:49:18.848Z,22.9002
2023-04-09T06:50:22.978Z,22.9225
2023-04-09T06:51:26.862Z,22.9251
2023-04-09T06:52:30.775Z,22.9275
2023-04-09T06:53:34.743Z,22.9277
2023-04-09T06:54:38.594Z,22.9300
2023-04-09T06:55:42.486Z,22.9351
2023-04-09T06:56:46.380Z,22.9376
2023-04-09T06:57:50.583Z,22.9356
2023-04-09T06:58:54.489Z,22.9176
2023-04-09T06:59:58.374Z,22.9023
2023-04-09T07:01:02.298Z,22.8978
2023-04-09T07:02:06.285Z,22.9027
2023-04-09T07:03:10.253Z,22.9190
2023-04-09T07:04:14.201Z,22.9201
2023-04-09T07:05:18.323Z,22.9096
2023-04-09T07:06:22.198Z,22.9056
2023-04-09T07:07:26.315Z,22.9305
2023-04-09T07:08:30.229Z,22.9413
2023-04-09T07:09:34.131Z,22.9396
2023-04-09T07:10:38.015Z,22.9310
2023-04-09T07:11:41.894Z,22.9356
2023-04-09T07:12:45.809Z,22.9435
2023-04-09T07:13:49.692Z,22.9449
2023-04-09T07:14:53.591Z,22.9377
2023-04-09T07:15:57.508Z,22.9374
2023-04-09T07:17:01.428Z,22.9305
2023-04-09T07:18:05.309Z,22.9440
2023-04-09T07:19:09.217Z,22.9535
2023-04-09T07:20:13.314Z,22.9517
2023-04-09T07:21:17.236Z,22.9389
2023-04-09T07:22:21.114Z,22.9289
2023-04-09T07:23:25.021Z,22.9379
2023-04-09T07:24:28.905Z,22.9425
2023-04-09T07:25:32.858Z,22.9407
2023-04-09T07:26:36.706Z,22.9462
2023-04-09T07:27:40.616Z,22.9574
2023-04-09T07:28:44.503Z,22.9600
2023-04-09T07:29:48.429Z,22.9563
2023-04-09T07:30:52.316Z,22.9674
2023-04-09T07:31:56.244Z,22.9692
2023-04-09T07:33:00.520Z,22.9750
2023-04-09T07:34:04.423Z,22.9893
2023-04-09T07:35:08.307Z,22.9796
2023-04-09T07:36:12.463Z,22.9673
2023-04-09T07:37:16.379Z,22.9524
2023-04-09T07:38:20.281Z,22.9582
2023-04-09T07:39:24.174Z,22.9688
2023-04-09T07:40:24.685Z,22.9748
2023-04-09T07:41:28.590Z,22.9694
2023-04-09T07:42:32.698Z,22.9743
2023-04-09T07:43:36.589Z,22.9703
2023-04-09T07:44:40.500Z,22.9710
2023-04-09T07:45:44.411Z,22.9756
2023-04-09T07:46:48.346Z,22.9765
2023-04-09T07:47:52.251Z,22.9803
2023-04-09T07:48:56.137Z,22.9788
2023-04-09T07:50:00.060Z,22.9865
2023-04-09T07:51:04.170Z,23.0040
2023-04-09T07:52:08.083Z,23.0223
2023-04-09T07:53:11.964Z,23.0365
2023-04-09T07:54:15.862Z,23.0586
2023-04-09T07:55:20.022Z,23.0749
2023-04-09T07:56:23.935Z,23.0816
2023-04-09T07:57:27.821Z,23.0890
2023-04-09T07:58:31.714Z,23.1061
2023-04-09T07:59:35.608Z,23.0813
2023-04-09T08:00:36.050Z,23.0623
2023-04-09T08:01:39.968Z,23.0734
2023-04-09T08:02:43.970Z,23.0914
2023-04-09T08:03:48.102Z,23.1095
2023-04-09T08:04:52.109Z,23.1076
2023-04-09T08:05:52.612Z,23.1105
2023-04-09T08:06:56.505Z,23.0943
2023-04-09T08:08:00.425Z,23.1128
2023-04-09T08:09:04.308Z,23.1239
2023-04-09T08:10:08.206Z,23.1167
2023-04-09T08:11:12.102Z,23.1207
2023-04-09T08:12:16.025Z,23.1390
2023-04-09T08:13:19.901Z,23.1261
2023-04-09T08:14:23.807Z,23.1165
2023-04-09T08:15:27.775Z,23.1077
2023-04-09T08:16:31.662Z,23.1096
2023-04-09T08:17:35.540Z,23.1117
2023-04-09T08:18:39.632Z,23.1066
2023-04-09T08:19:43.534Z,23.1186
2023-04-09T08:20:47.647Z,23.1577
2023-04-09T08:21:51.554Z,23.1694
2023-04-09T08:22:55.443Z,23.2006
2023-04-09T08:23:59.358Z,23.2200
2023-04-09T08:25:03.250Z,23.2322
2023-04-09T08:26:07.136Z,23.2323
2023-04-09T08:27:11.036Z,23.2386
2023-04-09T08:28:14.966Z,23.2637
2023-04-09T08:29:18.834Z,23.2728
2023-04-09T08:30:22.782Z,23.2981
2023-04-09T08:31:26.681Z,23.3193
2023-04-09T08:32:30.628Z,23.3217
2023-04-09T08:33:34.498Z,23.3180
2023-04-09T08:34:38.410Z,23.3090
2023-04-09T08:35:42.299Z,23.2936
2023-04-09T08:36:46.249Z,23.2835
2023-04-09T08:37:50.100Z,23.2296
2023-04-09T08:38:54.099Z,23.2033
2023-04-09T08:39:58.122Z,23.1799
2023-04-09T08:41:02.044Z,23.1785
2023-04-09T08:42:05.939Z,23.1929
2023-04-09T08:43:10.067Z,23.2111
2023-04-09T08:44:13.961Z,23.2123
2023-04-09T08:45:17.874Z,23.2120
2023-04-09T08:46:21.779Z,23.2171
2023-04-09T08:47:25.717Z,23.2053
2023-04-09T08:48:29.683Z,23.2053
2023-04-09T08:49:33.576Z,23.1947
2023-04-09T08:50:37.806Z,23.1932
2023-04-09T08:51:41.696Z,23.2002
2023-04-09T08:52:45.600Z,23.2027
2023-04-09T08:53:49.721Z,23.2120
2023-04-09T08:54:53.650Z,23.2300
2023-04-09T08:55:57.550Z,23.2571
2023-04-09T08:57:01.466Z,23.2690
2023-04-09T08:58:05.356Z,23.2863
2023-04-09T08:59:09.260Z,23.2923
2023-04-09T09:00:13.148Z,23.2767
2023-04-09T09:01:17.084Z,23.2824
2023-04-09T09:02:21.035Z,23.2789
2023-04-09T09:03:25.040Z,23.2653
2023-04-09T09:04:29.025Z,23.2806
2023-04-09T09:05:32.940Z,23.2929
2023-04-09T09:06:36.843Z,23.3015
2023-04-09T09:07:40.736Z,23.3175
2023-04-09T09:08:44.629Z,23.3422
2023-04-09T09:09:48.529Z,23.3606
2023-04-09T09:10:52.428Z,23.3839
2023-04-09T09:11:56.336Z,23.3857
2023-04-09T09:13:00.282Z,23.4026
2023-04-09T09:14:04.195Z,23.3748
2023-04-09T09:15:08.093Z,23.3629
2023-04-09T09:16:12.053Z,23.3826
2023-04-09T09:17:15.947Z,23.4158
2023-04-09T09:18:19.850Z,23.4338
2023-04-09T09:19:23.751Z,23.4451
2023-04-09T09:20:27.803Z,23.4387
2023-04-09T09:21:31.758Z,23.4393
2023-04-09T09:22:35.644Z,23.4525
2023-04-09T09:23:39.553Z,23.4671
2023-04-09T09:24:43.450Z,23.4712
2023-04-09T09:25:47.366Z,23.4466
2023-04-09T09:26:51.270Z,23.4268
2023-04-09T09:27:55.422Z,23.4057
2023-04-09T09:28:59.328Z,23.3985
2023-04-09T09:30:03.208Z,23.4123
2023-04-09T09:31:07.119Z,23.4111
2023-04-09T09:32:10.991Z,23.4174
2023-04-09T09:33:14.895Z,23.4322
2023-04-09T09:34:18.821Z,23.4388
2023-04-09T09:35:22.782Z,23.4237
2023-04-09T09:36:26.663Z,23.4273
2023-04-09T09:37:30.562Z,23.4294
2023-04-09T09:38:34.441Z,23.4301
2023-04-09T09:39:38.352Z,23.4372
2023-04-09T09:40:42.240Z,23.4578
2023-04-09T09:41:46.148Z,23.4708
2023-04-09T09:42:50.047Z,23.4779
2023-04-09T09:43:53.946Z,23.4705
2023-04-09T09:44:57.834Z,23.4631
2023-04-09T09:46:02.002Z,23.4676
2023-04-09T09:47:05.931Z,23.4638
2023-04-09T09:48:10.133Z,23.4550
2023-04-09T09:49:14.021Z,23.4686
2023-04-09T09:50:18.017Z,23.4642
2023-04-09T09:51:22.024Z,23.4581
2023-04-09T09:52:26.733Z,23.4639
2023-04-09T09:53:30.647Z,23.4610
2023-04-09T09:54:34.546Z,23.4543
2023-04-09T09:55:38.455Z,23.4465
2023-04-09T09:56:42.365Z,23.4399
2023-04-09T09:57:46.284Z,23.4317
2023-04-09T09:58:50.651Z,23.4308
2023-04-09T09:59:54.688Z,23.4229
2023-04-09T10:00:58.632Z,23.4280
2023-04-09T10:02:02.572Z,23.4216
2023-04-09T10:03:06.869Z,23.4193
2023-04-09T10:04:10.814Z,23.4128
2023-04-09T10:05:14.681Z,23.3995
2023-04-09T10:06:18.577Z,23.3932
2023-04-09T10:07:22.501Z,23.4008
2023-04-09T10:08:26.463Z,23.4104
2023-04-09T10:09:30.401Z,23.4130
2023-04-09T10:10:34.296Z,23.4129
2023-04-09T10:11:38.204Z,23.4075
2023-04-09T10:12:42.116Z,23.3986
2023-04-09T10:13:46.001Z,23.4026
2023-04-09T10:14:49.906Z,23.3967
2023-04-09T10:15:53.897Z,23.4100
2023-04-09T10:16:57.794Z,23.4066
2023-04-09T10:18:01.704Z,23.3978
2023-04-09T10:19:05.593Z,23.4082
2023-04-09T10:20:09.482Z,23.4237
2023-04-09T10:21:13.379Z,23.4067
2023-04-09T10:22:17.261Z,23.3991
2023-04-09T10:23:21.168Z,23.4067
2023-04-09T10:24:25.061Z,23.4074
2023-04-09T10:25:28.961Z,23.3960
2023-04-09T10:26:32.860Z,23.3834
2023-04-09T10:27:36.758Z,23.4002
2023-04-09T10:28:40.655Z,23.4066
2023-04-09T10:29:44.555Z,23.3967
2023-04-09T10:30:48.688Z,23.3801
2023-04-09T10:31:52.574Z,23.3889
2023-04-09T10:32:56.536Z,23.3817
2023-04-09T10:34:00.394Z,23.3808
2023-04-09T10:35:04.326Z,23.3865
2023-04-09T10:36:08.194Z,23.3956
2023-04-09T10:37:12.093Z,23.3931
2023-04-09T10:38:16.013Z,23.3878
2023-04-09T10:39:19.897Z,23.3844
2023-04-09T10:40:23.776Z,23.3872
2023-04-09T10:41:27.718Z,23.3881
2023-04-09T10:42:31.583Z,23.3911
2023-04-09T10:43:35.497Z,23.3876
2023-04-09T10:44:39.378Z,23.3843
2023-04-09T10:45:43.285Z,23.3621
2023-04-09T10:46:47.221Z,23.3368
2023-04-09T10:47:51.169Z,23.3424
2023-04-09T10:48:55.020Z,23.3508
2023-04-09T10:49:58.928Z,23.3781
2023-04-09T10:51:02.817Z,23.3871
2023-04-09T10:52:07.123Z,23.3827
2023-04-09T10:53:07.159Z,23.3751
2023-04-09T10:54:11.084Z,23.3956
2023-04-09T10:55:14.972Z,23.4163
2023-04-09T10:56:18.877Z,23.4087
2023-04-09T10:57:22.762Z,23.4114
2023-04-09T10:58:26.657Z,23.4161
2023-04-09T10:59:30.549Z,23.4112
2023-04-09T11:00:34.463Z,23.4229
2023-04-09T11:01:38.467Z,23.4085
2023-04-09T11:02:42.572Z,23.4111
2023-04-09T11:03:46.552Z,23.4039
2023-04-09T11:04:50.477Z,23.3801
2023-04-09T11:05:54.353Z,23.3936
2023-04-09T11:06:58.233Z,23.4060
2023-04-09T11:08:02.128Z,23.4061
2023-04-09T11:09:02.539Z,23.3956
2023-04-09T11:10:06.452Z,23.3728
2023-04-09T11:11:10.336Z,23.3758
2023-04-09T11:12:14.248Z,23.3904
2023-04-09T11:13:14.458Z,23.4188
2023-04-09T11:14:18.366Z,23.4502
2023-04-09T11:15:22.253Z,23.4598
2023-04-09T11:16:27.883Z,23.4676
2023-04-09T11:17:27.582Z,23.4832
2023-04-09T11:18:27.907Z,23.4827
2023-04-09T11:19:31.787Z,23.4682
2023-04-09T11:20:35.725Z,23.4608
2023-04-09T11:21:39.578Z,23.4595
2023-04-09T11:22:43.488Z,23.4698
2023-04-09T11:23:47.597Z,23.4867
2023-04-09T11:24:51.508Z,23.4990
2023-04-09T11:25:55.614Z,23.5047
2023-04-09T11:26:59.516Z,23.4918
2023-04-09T11:28:03.406Z,23.4645
2023-04-09T11:29:07.305Z,23.4521
2023-04-09T11:30:11.243Z,23.4331
2023-04-09T11:31:15.151Z,23.4102
2023-04-09T11:32:19.000Z,23.3972
2023-04-09T11:33:23.139Z,23.4141
2023-04-09T11:34:27.021Z,23.4139
2023-04-09T11:35:30.984Z,23.4149
2023-04-09T11:36:35.088Z,23.3827
2023-04-09T11:37:38.988Z,23.3701
2023-04-09T11:38:42.881Z,23.3551
2023-04-09T11:39:46.779Z,23.3528
2023-04-09T11:40:50.901Z,23.3616
2023-04-09T11:41:54.821Z,23.3724
2023-04-09T11:42:58.686Z,23.3618
2023-04-09T11:44:02.577Z,23.3470
2023-04-09T11:45:06.496Z,23.3375
2023-04-09T11:46:10.377Z,23.3187
2023-04-09T11:47:14.285Z,23.3184
2023-04-09T11:48:18.228Z,23.3017
2023-04-09T11:49:22.152Z,23.3030
2023-04-09T11:50:26.025Z,23.3067
2023-04-09T11:51:29.928Z,23.3157
2023-04-09T11:52:33.813Z,23.3240
2023-04-09T11:53:37.726Z,23.3223
2023-04-09T11:54:41.624Z,23.3181
2023-04-09T11:55:45.618Z,23.3117
2023-04-09T11:56:49.764Z,23.2979
2023-04-09T11:57:53.679Z,23.3038
2023-04-09T11:58:57.575Z,23.3015
2023-04-09T12:00:03.806Z,23.2971
2023-04-09T12:01:03.897Z,23.2904
2023-04-09T12:02:07.885Z,23.2753
2023-04-09T12:03:12.135Z,23.2697
2023-04-09T12:04:16.587Z,23.2762
2023-04-09T12:05:20.549Z,23.2743
2023-04-09T12:06:24.558Z,23.2731
2023-04-09T12:07:28.437Z,23.2673
2023-04-09T12:08:32.560Z,23.2712
2023-04-09T12:09:36.469Z,23.2679
2023-04-09T12:10:40.339Z,23.2624
2023-04-09T12:11:44.220Z,23.2559
2023-04-09T12:12:48.144Z,23.2536
2023-04-09T12:13:52.033Z,23.2514
2023-04-09T12:14:55.920Z,23.2521
2023-04-09T12:16:00.050Z,23.2541
2023-04-09T12:17:03.967Z,23.2663
2023-04-09T12:18:07.932Z,23.2738
2023-04-09T12:19:12.044Z,23.2798
2023-04-09T12:20:15.954Z,23.2711
2023-04-09T12:21:19.836Z,23.2733
2023-04-09T12:22:23.742Z,23.2547
2023-04-09T12:23:27.641Z,23.2403
2023-04-09T12:24:31.546Z,23.2353
2023-04-09T12:25:35.460Z,23.2188
2023-04-09T12:26:39.338Z,23.1994
2023-04-09T12:27:43.223Z,23.1805
2023-04-09T12:28:47.137Z,23.1594
2023-04-09T12:29:51.019Z,23.1555
2023-04-09T12:30:54.920Z,23.1475
2023-04-09T12:31:58.817Z,23.1444
2023-04-09T12:33:02.735Z,23.1392
2023-04-09T12:34:06.627Z,23.1364
2023-04-09T12:35:10.508Z,23.1336
2023-04-09T12:36:14.436Z,23.1172
2023-04-09T12:37:18.295Z,23.1055
2023-04-09T12:38:22.201Z,23.1129
2023-04-09T12:39:26.106Z,23.1139
2023-04-09T12:40:30.091Z,23.1096
2023-04-09T12:41:34.399Z,23.1167
2023-04-09T12:42:38.314Z,23.1031
2023-04-09T12:43:43.943Z,23.0897
2023-04-09T12:44:42.585Z,23.0907
2023-04-09T12:45:46.483Z,23.0873
2023-04-09T12:46:50.386Z,23.0746
2023-04-09T12:47:54.278Z,23.0714
2023-04-09T12:48:58.359Z,23.0772
2023-04-09T12:50:02.284Z,23.0753
2023-04-09T12:51:06.147Z,23.0700
2023-04-09T12:52:10.055Z,23.0620